createdAt,value
2023-02-19T00:01:07.576Z,91.70
2023-02-19T00:03:35.732Z,91.28
2023-02-19T00:06:03.778Z,99.23
2023-02-19T00:08:31.948Z,87.18
2023-02-19T00:11:03.268Z,97.87
2023-02-19T00:13:30.982Z,100.00
2023-02-19T00:15:58.863Z,100.00
2023-02-19T00:18:27.943Z,97.26
2023-02-19T00:20:57.716Z,100.00
2023-02-19T00:23:25.371Z,100.00
2023-02-19T00:25:53.060Z,100.00
2023-02-19T00:28:20.718Z,100.00
2023-02-19T00:30:48.352Z,100.00
2023-02-19T00:33:16.609Z,100.00
2023-02-19T00:35:45.752Z,100.00
2023-02-19T00:38:13.437Z,100.00
2023-02-19T00:40:41.085Z,100.00
2023-02-19T00:43:08.822Z,100.00
2023-02-19T00:45:36.426Z,100.00
2023-02-19T00:48:04.180Z,100.00
2023-02-19T00:50:31.854Z,100.00
2023-02-19T00:53:00.933Z,100.00
2023-02-19T00:55:28.708Z,100.00
2023-02-19T00:57:56.313Z,100.00
2023-02-19T01:00:24.009Z,100.00
2023-02-19T01:02:51.721Z,100.00
2023-02-19T01:05:19.364Z,100.00
2023-02-19T01:07:47.022Z,95.33
2023-02-19T01:10:15.970Z,100.00
2023-02-19T01:12:43.588Z,100.00
2023-02-19T01:15:11.316Z,100.00
2023-02-19T01:17:38.970Z,100.00
2023-02-19T01:20:07.133Z,100.00
2023-02-19T01:22:34.782Z,100.00
2023-02-19T01:25:02.494Z,100.00
2023-02-19T01:27:31.515Z,100.00
2023-02-19T01:29:59.255Z,100.00
2023-02-19T01:32:26.919Z,100.00
2023-02-19T01:34:54.536Z,100.00
2023-02-19T01:37:22.250Z,100.00
2023-02-19T01:39:49.842Z,100.00
2023-02-19T01:42:17.859Z,98.29
2023-02-19T01:45:04.054Z,100.00
2023-02-19T01:47:33.123Z,100.00
2023-02-19T01:50:00.721Z,100.00
2023-02-19T01:52:28.817Z,100.00
2023-02-19T01:54:56.443Z,100.00
2023-02-19T01:57:24.895Z,100.00
2023-02-19T01:59:54.867Z,100.00
2023-02-19T02:02:23.755Z,100.00
2023-02-19T02:04:52.869Z,100.00
2023-02-19T02:07:37.934Z,100.00
2023-02-19T02:10:23.912Z,100.00
2023-02-19T02:12:52.854Z,100.00
2023-02-19T02:15:22.234Z,100.00
2023-02-19T02:17:52.211Z,100.00
2023-02-19T02:20:34.599Z,100.00
2023-02-19T02:23:04.715Z,100.00
2023-02-19T02:25:49.012Z,100.00
2023-02-19T02:28:24.290Z,100.00
2023-02-19T02:30:55.313Z,100.00
2023-02-19T02:33:27.958Z,100.00
2023-02-19T02:35:57.763Z,100.00
2023-02-19T02:38:26.378Z,100.00
2023-02-19T02:40:54.999Z,100.00
2023-02-19T02:43:23.174Z,100.00
2023-02-19T02:45:51.927Z,100.00
2023-02-19T02:48:30.997Z,100.00
2023-02-19T02:51:00.303Z,100.00
2023-02-19T02:53:49.536Z,100.00
2023-02-19T02:56:17.522Z,100.00
2023-02-19T02:58:45.219Z,100.00
2023-02-19T03:01:30.996Z,100.00
2023-02-19T03:04:01.404Z,100.00
2023-02-19T03:06:30.005Z,100.00
2023-02-19T03:08:59.442Z,100.00
2023-02-19T03:11:44.614Z,100.00
2023-02-19T03:14:31.476Z,100.00
2023-02-19T03:17:17.858Z,100.00
2023-02-19T03:19:49.590Z,100.00
2023-02-19T03:22:19.907Z,100.00
2023-02-19T03:25:07.700Z,100.00
2023-02-19T03:27:35.471Z,100.00
2023-02-19T03:30:04.595Z,100.00
2023-02-19T03:32:33.639Z,100.00
2023-02-19T03:35:02.949Z,100.00
2023-02-19T03:37:31.707Z,100.00
2023-02-19T03:40:01.061Z,100.00
2023-02-19T03:42:32.430Z,100.00
2023-02-19T03:45:03.951Z,100.00
2023-02-19T03:47:34.710Z,100.00
2023-02-19T03:50:05.845Z,100.00
2023-02-19T03:52:37.298Z,100.00
2023-02-19T03:55:06.657Z,100.00
2023-02-19T03:57:35.810Z,100.00
2023-02-19T04:00:05.452Z,100.00
2023-02-19T04:02:40.659Z,100.00
2023-02-19T04:05:13.148Z,100.00
2023-02-19T04:07:42.590Z,100.00
2023-02-19T04:10:10.907Z,100.00
2023-02-19T04:12:45.760Z,100.00
2023-02-19T04:15:13.817Z,100.00
2023-02-19T04:17:43.944Z,100.00
2023-02-19T04:20:12.996Z,100.00
2023-02-19T04:22:41.047Z,100.00
2023-02-19T04:25:08.957Z,100.00
2023-02-19T04:27:37.088Z,100.00
2023-02-19T04:30:05.141Z,100.00
2023-02-19T04:32:32.844Z,100.00
2023-02-19T04:35:00.467Z,100.00
2023-02-19T04:37:29.464Z,100.00
2023-02-19T04:39:57.130Z,100.00
2023-02-19T04:42:24.819Z,100.00
2023-02-19T04:44:52.386Z,92.72
2023-02-19T04:47:20.091Z,100.00
2023-02-19T04:49:47.726Z,100.00
2023-02-19T04:52:15.392Z,100.00
2023-02-19T04:54:44.339Z,100.00
2023-02-19T04:57:11.947Z,100.00
2023-02-19T04:59:39.550Z,100.00
2023-02-19T05:02:07.163Z,100.00
2023-02-19T05:04:35.003Z,100.00
2023-02-19T05:07:02.710Z,100.00
2023-02-19T05:09:30.341Z,100.00
2023-02-19T05:11:59.379Z,100.00
2023-02-19T05:14:27.005Z,100.00
2023-02-19T05:16:54.646Z,100.00
2023-02-19T05:19:22.231Z,100.00
2023-02-19T05:21:49.891Z,100.00
2023-02-19T05:24:17.604Z,100.00
2023-02-19T05:26:45.602Z,100.00
2023-02-19T05:29:14.649Z,100.00
2023-02-19T05:31:42.536Z,100.00
2023-02-19T05:34:10.277Z,100.00
2023-02-19T05:36:38.159Z,100.00
2023-02-19T05:39:06.191Z,100.00
2023-02-19T05:41:33.839Z,100.00
2023-02-19T05:44:01.474Z,100.00
2023-02-19T05:46:30.828Z,100.00
2023-02-19T05:48:59.147Z,100.00
2023-02-19T05:51:27.057Z,100.00
2023-02-19T05:53:54.670Z,100.00
2023-02-19T05:56:26.004Z,100.00
2023-02-19T05:58:54.373Z,100.00
2023-02-19T06:01:22.803Z,100.00
2023-02-19T06:03:51.996Z,100.00
2023-02-19T06:06:19.824Z,100.00
2023-02-19T06:08:47.487Z,100.00
2023-02-19T06:11:15.107Z,100.00
2023-02-19T06:13:42.694Z,100.00
2023-02-19T06:16:10.658Z,100.00
2023-02-19T06:18:40.312Z,100.00
2023-02-19T06:21:10.144Z,100.00
2023-02-19T06:23:38.190Z,100.00
2023-02-19T06:26:07.049Z,92.47
2023-02-19T06:28:34.672Z,93.58
2023-02-19T06:31:02.412Z,79.45
2023-02-19T06:33:30.289Z,71.85
2023-02-19T06:35:59.108Z,73.93
2023-02-19T06:38:28.322Z,78.89
2023-02-19T06:40:55.940Z,84.93
2023-02-19T06:43:23.581Z,100.00
2023-02-19T06:45:52.817Z,100.00
2023-02-19T06:48:20.466Z,100.00
2023-02-19T06:50:48.117Z,100.00
2023-02-19T06:53:15.777Z,100.00
2023-02-19T06:55:44.786Z,93.54
2023-02-19T06:58:12.433Z,83.35
2023-02-19T07:00:40.051Z,80.11
2023-02-19T07:03:07.690Z,100.00
2023-02-19T07:05:35.273Z,94.65
2023-02-19T07:08:02.951Z,100.00
2023-02-19T07:10:30.561Z,91.60
2023-02-19T07:12:59.550Z,90.81
2023-02-19T07:15:27.197Z,87.26
2023-02-19T07:17:54.730Z,97.07
2023-02-19T07:20:22.319Z,100.00
2023-02-19T07:22:50.117Z,83.95
2023-02-19T07:25:17.820Z,90.52
2023-02-19T07:27:45.509Z,84.25
2023-02-19T07:30:14.751Z,84.66
2023-02-19T07:32:42.458Z,74.44
2023-02-19T07:35:10.126Z,83.50
2023-02-19T07:37:37.792Z,81.46
2023-02-19T07:40:06.194Z,100.00
2023-02-19T07:42:33.771Z,100.00
2023-02-19T07:45:01.419Z,100.00
2023-02-19T07:47:30.960Z,89.66
2023-02-19T07:49:58.631Z,81.21
2023-02-19T07:52:26.292Z,100.00
2023-02-19T07:54:53.911Z,100.00
2023-02-19T07:57:21.562Z,100.00
2023-02-19T07:59:49.178Z,92.64
2023-02-19T08:02:34.387Z,100.00
2023-02-19T08:05:03.493Z,98.29
2023-02-19T08:07:34.132Z,100.00
2023-02-19T08:10:15.784Z,100.00
2023-02-19T08:13:01.110Z,100.00
2023-02-19T08:15:28.769Z,100.00
2023-02-19T08:17:56.302Z,87.87
2023-02-19T08:20:25.351Z,100.00
2023-02-19T08:22:52.949Z,93.06
2023-02-19T08:25:20.593Z,100.00
2023-02-19T08:27:48.207Z,100.00
2023-02-19T08:30:15.942Z,100.00
2023-02-19T08:32:43.570Z,100.00
2023-02-19T08:35:11.215Z,98.04
2023-02-19T08:37:40.259Z,96.13
2023-02-19T08:40:08.089Z,100.00
2023-02-19T08:42:35.719Z,95.72
2023-02-19T08:45:03.709Z,100.00
2023-02-19T08:47:31.317Z,100.00
2023-02-19T08:49:59.029Z,100.00
2023-02-19T08:52:26.624Z,100.00
2023-02-19T08:54:55.651Z,100.00
2023-02-19T08:57:23.382Z,100.00
2023-02-19T08:59:51.032Z,91.92
2023-02-19T09:02:18.694Z,85.42
2023-02-19T09:04:46.306Z,90.29
2023-02-19T09:07:13.925Z,100.00
2023-02-19T09:09:41.592Z,80.55
2023-02-19T09:12:11.679Z,100.00
2023-02-19T09:14:39.629Z,100.00
2023-02-19T09:17:07.835Z,100.00
2023-02-19T09:19:35.910Z,70.86
2023-02-19T09:22:03.935Z,100.00
2023-02-19T09:24:31.789Z,91.69
2023-02-19T09:26:59.408Z,100.00
2023-02-19T09:29:28.947Z,93.65
2023-02-19T09:31:57.139Z,100.00
2023-02-19T09:34:24.819Z,100.00
2023-02-19T09:36:52.485Z,100.00
2023-02-19T09:39:20.203Z,89.26
2023-02-19T09:41:48.928Z,100.00
2023-02-19T09:44:21.753Z,98.19
2023-02-19T09:46:51.326Z,71.76
2023-02-19T09:49:21.116Z,74.86
2023-02-19T09:51:49.691Z,65.79
2023-02-19T09:54:19.139Z,70.07
2023-02-19T09:56:46.783Z,73.85
2023-02-19T09:59:15.871Z,72.62
2023-02-19T10:01:43.512Z,69.76
2023-02-19T10:04:12.658Z,83.39
2023-02-19T10:06:40.320Z,86.18
2023-02-19T10:09:14.394Z,83.15
2023-02-19T10:11:42.025Z,79.77
2023-02-19T10:14:11.968Z,87.41
2023-02-19T10:16:41.410Z,74.41
2023-02-19T10:19:12.017Z,84.19
2023-02-19T10:21:39.678Z,82.11
2023-02-19T10:24:07.488Z,73.84
2023-02-19T10:26:36.781Z,76.35
2023-02-19T10:29:05.017Z,61.14
2023-02-19T10:31:33.256Z,61.03
2023-02-19T10:34:01.957Z,66.50
2023-02-19T10:36:32.266Z,69.20
2023-02-19T10:39:00.550Z,72.74
2023-02-19T10:41:28.303Z,59.35
2023-02-19T10:43:56.785Z,63.65
2023-02-19T10:46:25.084Z,56.26
2023-02-19T10:48:53.430Z,57.46
2023-02-19T10:51:22.483Z,58.26
2023-02-19T10:53:52.379Z,59.09
2023-02-19T10:56:24.164Z,55.17
2023-02-19T10:58:51.961Z,54.93
2023-02-19T11:01:20.544Z,63.80
2023-02-19T11:03:48.644Z,57.35
2023-02-19T11:06:16.735Z,56.27
2023-02-19T11:08:48.853Z,53.33
2023-02-19T11:11:24.869Z,50.60
2023-02-19T11:13:52.523Z,52.33
2023-02-19T11:16:20.257Z,49.49
2023-02-19T11:18:56.882Z,56.23
2023-02-19T11:21:28.101Z,59.21
2023-02-19T11:23:55.728Z,52.33
2023-02-19T11:26:25.452Z,48.26
2023-02-19T11:28:56.639Z,48.81
2023-02-19T11:31:27.006Z,49.83
2023-02-19T11:33:55.750Z,50.91
2023-02-19T11:36:30.977Z,51.60
2023-02-19T11:38:59.132Z,50.73
2023-02-19T11:41:35.688Z,53.10
2023-02-19T11:44:07.271Z,51.62
2023-02-19T11:46:36.301Z,50.44
2023-02-19T11:49:06.361Z,50.65
2023-02-19T11:51:36.460Z,47.69
2023-02-19T11:54:07.415Z,49.88
2023-02-19T11:56:37.224Z,51.57
2023-02-19T11:59:06.008Z,49.71
2023-02-19T12:01:44.488Z,47.20
2023-02-19T12:04:30.662Z,44.82
2023-02-19T12:07:00.767Z,43.87
2023-02-19T12:09:32.065Z,44.66
2023-02-19T12:12:11.270Z,44.47
2023-02-19T12:14:56.929Z,45.63
2023-02-19T12:17:31.539Z,45.71
2023-02-19T12:20:02.062Z,43.71
2023-02-19T12:22:30.162Z,45.80
2023-02-19T12:25:16.356Z,43.40
2023-02-19T12:27:48.599Z,42.62
2023-02-19T12:30:20.562Z,45.27
2023-02-19T12:32:55.600Z,47.58
2023-02-19T12:35:43.883Z,45.80
2023-02-19T12:38:15.623Z,47.73
2023-02-19T12:40:46.467Z,45.89
2023-02-19T12:43:16.329Z,46.37
2023-02-19T12:45:45.108Z,45.26
2023-02-19T12:48:14.479Z,46.09
2023-02-19T12:50:42.126Z,47.83
2023-02-19T12:53:18.190Z,47.88
2023-02-19T12:55:45.922Z,47.30
2023-02-19T12:58:16.664Z,48.90
2023-02-19T13:00:46.085Z,41.96
2023-02-19T13:03:16.551Z,44.24
2023-02-19T13:05:45.338Z,44.39
2023-02-19T13:08:14.592Z,43.08
2023-02-19T13:10:43.409Z,40.14
2023-02-19T13:13:11.459Z,38.84
2023-02-19T13:15:42.194Z,37.66
2023-02-19T13:18:17.607Z,38.06
2023-02-19T13:20:46.557Z,36.75
2023-02-19T13:23:32.309Z,36.13
2023-02-19T13:26:09.473Z,41.42
2023-02-19T13:28:43.267Z,45.18
2023-02-19T13:31:16.706Z,46.10
2023-02-19T13:33:48.480Z,42.21
2023-02-19T13:36:16.700Z,41.45
2023-02-19T13:38:44.847Z,40.85
2023-02-19T13:41:23.443Z,41.81
2023-02-19T13:43:55.415Z,42.64
2023-02-19T13:46:23.160Z,43.15
2023-02-19T13:48:52.129Z,42.87
2023-02-19T13:51:38.322Z,43.74
2023-02-19T13:54:14.513Z,42.19
2023-02-19T13:56:42.238Z,44.27
2023-02-19T13:59:26.445Z,42.07
2023-02-19T14:02:12.362Z,37.90
2023-02-19T14:04:50.205Z,36.83
2023-02-19T14:07:21.247Z,35.73
2023-02-19T14:09:49.017Z,36.61
2023-02-19T14:12:20.438Z,40.38
2023-02-19T14:14:48.202Z,41.81
2023-02-19T14:17:26.175Z,36.66
2023-02-19T14:19:56.354Z,38.64
2023-02-19T14:22:42.702Z,38.58
2023-02-19T14:25:14.795Z,41.26
2023-02-19T14:27:42.443Z,37.89
2023-02-19T14:30:10.676Z,34.15
2023-02-19T14:32:39.722Z,36.06
2023-02-19T14:35:18.001Z,38.57
2023-02-19T14:37:45.684Z,40.76
2023-02-19T14:40:13.566Z,41.72
2023-02-19T14:42:41.505Z,44.18
2023-02-19T14:45:09.579Z,44.55
2023-02-19T14:47:37.266Z,44.26
2023-02-19T14:50:06.529Z,42.45
2023-02-19T14:52:37.087Z,40.51
2023-02-19T14:55:05.144Z,41.73
2023-02-19T14:57:33.805Z,42.57
2023-02-19T15:00:01.883Z,44.39
2023-02-19T15:02:30.404Z,44.50
2023-02-19T15:04:58.117Z,41.00
2023-02-19T15:07:26.219Z,39.51
2023-02-19T15:09:56.989Z,40.80
2023-02-19T15:12:26.784Z,38.25
2023-02-19T15:14:55.279Z,40.50
2023-02-19T15:17:23.602Z,40.78
2023-02-19T15:19:51.196Z,39.98
2023-02-19T15:22:20.185Z,41.92
2023-02-19T15:24:48.755Z,40.38
2023-02-19T15:27:19.047Z,41.09
2023-02-19T15:29:46.897Z,41.25
2023-02-19T15:32:17.159Z,37.87
2023-02-19T15:34:46.960Z,35.49
2023-02-19T15:37:14.595Z,32.70
2023-02-19T15:39:42.879Z,36.17
2023-02-19T15:42:11.098Z,37.37
2023-02-19T15:44:42.159Z,38.45
2023-02-19T15:47:12.472Z,38.17
2023-02-19T15:49:42.378Z,38.76
2023-02-19T15:52:10.833Z,38.03
2023-02-19T15:54:40.607Z,37.61
2023-02-19T15:57:08.506Z,37.25
2023-02-19T15:59:37.506Z,39.02
2023-02-19T16:02:06.508Z,40.29
2023-02-19T16:04:34.952Z,40.19
2023-02-19T16:07:03.636Z,39.89
2023-02-19T16:09:32.115Z,40.39
2023-02-19T16:12:00.120Z,41.09
2023-02-19T16:14:31.400Z,38.36
2023-02-19T16:16:59.553Z,41.93
2023-02-19T16:19:29.034Z,40.28
2023-02-19T16:21:56.733Z,38.90
2023-02-19T16:24:27.678Z,40.24
2023-02-19T16:26:55.383Z,41.95
2023-02-19T16:29:23.637Z,49.01
2023-02-19T16:31:52.001Z,38.88
2023-02-19T16:34:20.190Z,38.60
2023-02-19T16:36:49.325Z,38.84
2023-02-19T16:39:20.747Z,38.42
2023-02-19T16:42:19.261Z,38.36
2023-02-19T16:44:47.504Z,38.59
2023-02-19T16:47:24.457Z,38.35
2023-02-19T16:49:52.162Z,40.35
2023-02-19T16:52:21.162Z,39.86
2023-02-19T16:54:50.427Z,41.69
2023-02-19T16:57:18.043Z,40.80
2023-02-19T16:59:45.690Z,38.90
2023-02-19T17:02:16.102Z,39.90
2023-02-19T17:04:43.753Z,39.78
2023-02-19T17:07:12.749Z,40.28
2023-02-19T17:09:41.817Z,40.22
2023-02-19T17:12:11.362Z,40.22
2023-02-19T17:14:39.306Z,40.19
2023-02-19T17:17:07.088Z,39.72
2023-02-19T17:19:34.839Z,39.22
2023-02-19T17:22:02.636Z,39.24
2023-02-19T17:24:30.391Z,39.42
2023-02-19T17:26:59.585Z,39.42
2023-02-19T17:29:28.554Z,39.47
2023-02-19T17:31:56.298Z,38.71
2023-02-19T17:34:23.988Z,39.32
2023-02-19T17:36:52.006Z,38.90
2023-02-19T17:39:19.972Z,38.63
2023-02-19T17:41:47.569Z,38.46
2023-02-19T17:44:16.843Z,39.35
2023-02-19T17:46:47.413Z,39.21
2023-02-19T17:49:15.202Z,39.21
2023-02-19T17:51:42.910Z,39.89
2023-02-19T17:54:10.588Z,40.10
2023-02-19T17:56:43.100Z,40.86
2023-02-19T17:59:11.100Z,41.00
2023-02-19T18:01:40.262Z,41.56
2023-02-19T18:04:10.405Z,41.27
2023-02-19T18:06:38.056Z,41.94
2023-02-19T18:09:05.830Z,41.18
2023-02-19T18:11:33.434Z,41.24
2023-02-19T18:14:01.122Z,41.62
2023-02-19T18:16:28.895Z,41.44
2023-02-19T18:19:02.258Z,41.76
2023-02-19T18:21:29.885Z,42.17
2023-02-19T18:23:57.629Z,42.24
2023-02-19T18:26:27.809Z,46.08
2023-02-19T18:28:55.447Z,41.01
2023-02-19T18:31:23.157Z,40.95
2023-02-19T18:33:50.925Z,40.56
2023-02-19T18:36:19.971Z,41.45
2023-02-19T18:38:47.616Z,41.20
2023-02-19T18:41:19.754Z,41.51
2023-02-19T18:43:47.831Z,42.30
2023-02-19T18:46:15.758Z,41.76
2023-02-19T18:48:43.413Z,42.29
2023-02-19T18:51:11.589Z,40.92
2023-02-19T18:53:40.859Z,41.60
2023-02-19T18:56:09.100Z,40.75
2023-02-19T18:58:36.812Z,41.36
2023-02-19T19:01:04.564Z,41.73
2023-02-19T19:03:32.267Z,41.92
2023-02-19T19:06:00.034Z,42.98
2023-02-19T19:08:29.751Z,42.86
2023-02-19T19:10:59.746Z,42.23
2023-02-19T19:13:27.358Z,43.42
2023-02-19T19:15:55.081Z,42.49
2023-02-19T19:18:22.746Z,42.60
2023-02-19T19:20:50.502Z,42.93
2023-02-19T19:23:18.078Z,43.58
2023-02-19T19:25:45.734Z,43.61
2023-02-19T19:28:14.740Z,43.55
2023-02-19T19:30:42.564Z,44.46
2023-02-19T19:33:12.012Z,43.67
2023-02-19T19:35:39.816Z,42.56
2023-02-19T19:38:07.492Z,44.44
2023-02-19T19:40:35.265Z,45.20
2023-02-19T19:43:02.932Z,43.96
2023-02-19T19:45:31.955Z,44.11
2023-02-19T19:47:59.672Z,43.90
2023-02-19T19:50:27.372Z,43.30
2023-02-19T19:52:55.055Z,42.92
2023-02-19T19:55:22.910Z,43.16
2023-02-19T19:57:50.548Z,44.95
2023-02-19T20:00:18.981Z,45.31
2023-02-19T20:02:48.008Z,48.60
2023-02-19T20:05:16.823Z,46.16
2023-02-19T20:07:44.594Z,44.39
2023-02-19T20:10:13.032Z,45.83
2023-02-19T20:12:40.792Z,45.50
2023-02-19T20:15:09.164Z,45.09
2023-02-19T20:17:36.880Z,45.04
2023-02-19T20:20:06.687Z,45.33
2023-02-19T20:22:36.332Z,46.44
2023-02-19T20:25:04.084Z,46.44
2023-02-19T20:27:31.919Z,46.60
2023-02-19T20:29:59.620Z,47.20
2023-02-19T20:32:27.261Z,48.10
2023-02-19T20:34:54.917Z,48.34
2023-02-19T20:37:24.035Z,46.76
2023-02-19T20:39:51.769Z,46.16
2023-02-19T20:42:19.940Z,48.34
2023-02-19T20:44:47.793Z,49.17
2023-02-19T20:47:15.446Z,48.25
2023-02-19T20:49:44.896Z,47.27
2023-02-19T20:52:12.638Z,46.35
2023-02-19T20:54:42.598Z,47.17
2023-02-19T20:57:10.274Z,48.42
2023-02-19T20:59:38.754Z,52.26
2023-02-19T21:02:07.181Z,46.84
2023-02-19T21:04:34.926Z,45.65
2023-02-19T21:07:02.588Z,46.22
2023-02-19T21:09:30.304Z,46.50
2023-02-19T21:11:59.952Z,46.74
2023-02-19T21:14:27.812Z,46.54
2023-02-19T21:16:55.491Z,45.73
2023-02-19T21:19:23.148Z,46.86
2023-02-19T21:21:50.926Z,47.72
2023-02-19T21:24:18.602Z,47.40
2023-02-19T21:26:46.274Z,47.30
2023-02-19T21:29:16.989Z,46.75
2023-02-19T21:31:45.384Z,46.70
2023-02-19T21:34:14.354Z,47.48
2023-02-19T21:36:42.099Z,47.79
2023-02-19T21:39:10.497Z,48.74
2023-02-19T21:41:38.176Z,49.46
2023-02-19T21:44:05.898Z,47.79
2023-02-19T21:46:35.022Z,48.73
2023-02-19T21:49:03.714Z,50.10
2023-02-19T21:51:32.576Z,49.20
2023-02-19T21:54:00.342Z,49.96
2023-02-19T21:56:29.377Z,49.30
2023-02-19T21:58:57.060Z,50.91
2023-02-19T22:01:25.120Z,49.79
2023-02-19T22:03:54.843Z,48.05
2023-02-19T22:06:23.881Z,48.19
2023-02-19T22:08:51.538Z,48.07
2023-02-19T22:11:19.197Z,47.98
2023-02-19T22:13:46.953Z,49.00
2023-02-19T22:16:14.885Z,50.87
2023-02-19T22:18:46.793Z,52.47
2023-02-19T22:21:16.323Z,51.00
2023-02-19T22:23:44.627Z,52.18
2023-02-19T22:26:17.789Z,52.31
2023-02-19T22:28:45.853Z,54.57
2023-02-19T22:31:13.567Z,52.09
2023-02-19T22:33:41.395Z,51.97
2023-02-19T22:36:14.472Z,52.00
2023-02-19T22:38:43.549Z,50.73
2023-02-19T22:41:11.418Z,53.87
2023-02-19T22:43:39.046Z,53.74
2023-02-19T22:46:09.797Z,53.41
2023-02-19T22:48:37.519Z,51.06
2023-02-19T22:51:05.281Z,50.31
2023-02-19T22:53:32.940Z,52.49
2023-02-19T22:56:01.960Z,55.72
2023-02-19T22:58:29.569Z,54.12
2023-02-19T23:00:57.287Z,55.68
2023-02-19T23:03:24.976Z,53.15
2023-02-19T23:06:31.111Z,58.19
2023-02-19T23:08:59.257Z,54.40
2023-02-19T23:11:29.648Z,58.42
2023-02-19T23:13:57.441Z,58.69
2023-02-19T23:16:25.366Z,56.77
2023-02-19T23:18:53.082Z,54.59
2023-02-19T23:21:20.976Z,54.09
2023-02-19T23:23:48.693Z,53.87
2023-02-19T23:26:16.683Z,54.13
2023-02-19T23:28:47.062Z,57.94
2023-02-19T23:31:14.961Z,56.38
2023-02-19T23:33:43.138Z,55.14
2023-02-19T23:36:11.356Z,57.48
2023-02-19T23:38:39.198Z,57.28
2023-02-19T23:41:09.741Z,59.01
2023-02-19T23:43:37.506Z,59.12
2023-02-19T23:46:06.639Z,61.82
2023-02-19T23:48:34.347Z,61.24
2023-02-19T23:51:02.032Z,61.04
2023-02-19T23:53:29.746Z,58.12
2023-02-19T23:55:57.389Z,57.57
2023-02-19T23:58:25.026Z,58.01
